Time;durP1;ratioP1;P1;durP2;ratioP2;P2;SDS_P1;SDS_P2;PMS_P1;PMS_P2;Temp;Humidity;BMP_temperature;BMP_pressure;BME280_temperature;BME280_humidity;BME280_pressure;Samples;Min_cycle;Max_cycle;Signal;HPM_P1;HPM_P2
2023/08/03 00:01:51;;;;;;;4.82;1.50;;;21.80;97.00;;;;;;5031289;28;20116;-61
2023/08/03 00:04:17;;;;;;;4.88;1.63;;;21.90;97.50;;;;;;5044921;28;20054;-61
2023/08/03 00:06:44;;;;;;;4.30;1.48;;;21.80;97.10;;;;;;5028037;28;20049;-62
2023/08/03 00:09:10;;;;;;;5.20;1.38;;;21.90;97.20;;;;;;5009014;28;20084;-67
2023/08/03 00:11:36;;;;;;;4.47;1.35;;;22.00;97.20;;;;;;5026803;28;21885;-71
2023/08/03 00:14:03;;;;;;;4.38;1.45;;;21.90;95.80;;;;;;5029505;28;20049;-70
2023/08/03 00:16:28;;;;;;;3.58;1.35;;;21.90;97.00;;;;;;5050486;28;20096;-67
2023/08/03 00:18:54;;;;;;;3.22;1.35;;;21.60;97.40;;;;;;5033244;28;20453;-66
2023/08/03 00:21:20;;;;;;;3.08;1.30;;;21.90;97.00;;;;;;5033739;28;20042;-67
2023/08/03 00:23:46;;;;;;;5.68;1.45;;;21.90;97.00;;;;;;5032847;28;20052;-66
2023/08/03 00:26:12;;;;;;;4.00;1.23;;;21.80;97.10;;;;;;5029509;28;20499;-73
2023/08/03 00:28:37;;;;;;;5.05;1.55;;;21.90;97.10;;;;;;5001159;28;20054;-70
2023/08/03 00:31:03;;;;;;;2.15;1.00;;;22.30;97.70;;;;;;5047656;28;20570;-74
2023/08/03 00:33:29;;;;;;;5.75;1.45;;;21.80;96.00;;;;;;5014918;28;20041;-74
2023/08/03 00:35:56;;;;;;;3.63;1.30;;;21.90;97.00;;;;;;5038750;28;20045;-73
2023/08/03 00:38:22;;;;;;;3.63;1.30;;;21.70;97.10;;;;;;5033936;28;20553;-73
2023/08/03 00:40:50;;;;;;;2.35;0.90;;;21.80;97.00;;;;;;5031920;28;20387;-74
2023/08/03 00:43:16;;;;;;;3.58;1.38;;;21.70;97.00;;;;;;5020735;28;20062;-61
2023/08/03 00:45:42;;;;;;;4.03;1.40;;;21.70;97.50;;;;;;5008788;28;20479;-62
2023/08/03 00:48:08;;;;;;;2.80;1.20;;;21.70;97.30;;;;;;5031386;28;20037;-61
2023/08/03 00:50:33;;;;;;;3.80;1.10;;;21.80;97.40;;;;;;5046425;28;20053;-62
2023/08/03 00:52:59;;;;;;;2.70;1.10;;;;;;;;;;5010077;28;20049;-63
2023/08/03 00:55:25;;;;;;;3.85;1.30;;;21.90;97.40;;;;;;5029454;28;20053;-61
2023/08/03 00:57:51;;;;;;;4.63;1.50;;;21.80;97.00;;;;;;5031767;28;20518;-62
2023/08/03 01:00:17;;;;;;;3.80;1.50;;;21.70;97.10;;;;;;5029739;28;20045;-62
2023/08/03 01:02:43;;;;;;;3.25;1.30;;;21.80;97.20;;;;;;5024522;28;20057;-62
2023/08/03 01:05:08;;;;;;;3.67;1.20;;;21.70;97.10;;;;;;5021035;28;20075;-61
2023/08/03 01:07:34;;;;;;;3.28;1.23;;;22.10;97.60;;;;;;5027153;28;20542;-61
2023/08/03 01:10:00;;;;;;;4.60;1.30;;;21.70;97.00;;;;;;5019008;28;20567;-61
2023/08/03 01:12:27;;;;;;;3.33;1.10;;;21.80;97.00;;;;;;5032305;28;20056;-61
2023/08/03 01:14:52;;;;;;;3.35;1.35;;;21.90;96.00;;;;;;5045523;28;20044;-61
2023/08/03 01:17:19;;;;;;;4.90;1.20;;;21.70;97.10;;;;;;5032451;28;20041;-62
2023/08/03 01:19:44;;;;;;;3.35;1.10;;;21.90;97.10;;;;;;5029849;28;20045;-61
2023/08/03 01:22:10;;;;;;;3.55;1.27;;;21.70;97.20;;;;;;5033395;28;20041;-61
2023/08/03 01:24:36;;;;;;;4.97;1.33;;;21.80;96.00;;;;;;5029936;28;20107;-63
2023/08/03 01:27:02;;;;;;;4.30;1.30;;;21.80;97.10;;;;;;5032732;28;20116;-61
2023/08/03 01:29:28;;;;;;;3.13;1.20;;;21.60;96.10;;;;;;5015744;28;20492;-61
2023/08/03 01:31:56;;;;;;;4.35;1.50;;;21.70;97.00;;;;;;5031631;28;20099;-61
2023/08/03 01:34:25;;;;;;;4.30;1.20;;;21.80;96.90;;;;;;5031618;28;20056;-62
2023/08/03 01:36:52;;;;;;;3.78;1.10;;;21.80;97.50;;;;;;5023533;28;20046;-74
2023/08/03 01:39:18;;;;;;;2.45;1.02;;;21.80;97.10;;;;;;5053642;28;20049;-73
2023/08/03 01:41:43;;;;;;;3.85;1.42;;;21.80;97.10;;;;;;5027296;28;20122;-74
2023/08/03 01:44:18;;;;;;;4.00;1.20;;;21.70;97.00;;;;;;5028741;28;20132;-61
2023/08/03 01:46:43;;;;;;;2.40;1.00;;;21.80;97.20;;;;;;5016372;28;20049;-60
2023/08/03 01:49:09;;;;;;;3.10;1.10;;;21.90;97.20;;;;;;5014022;28;20046;-60
2023/08/03 01:51:36;;;;;;;4.47;1.65;;;21.70;97.20;;;;;;5023231;28;20062;-73
2023/08/03 01:54:01;;;;;;;4.43;1.25;;;21.70;97.10;;;;;;5024508;28;20076;-69
2023/08/03 01:56:27;;;;;;;3.05;1.10;;;21.80;97.10;;;;;;5025363;28;20049;-68
2023/08/03 01:58:53;;;;;;;3.10;1.30;;;21.90;97.10;;;;;;5029442;28;20107;-65
2023/08/03 02:01:19;;;;;;;5.63;1.48;;;21.60;96.00;;;;;;5025353;28;20045;-71
2023/08/03 02:03:44;;;;;;;3.53;1.20;;;21.80;97.20;;;;;;5032055;28;20041;-73
2023/08/03 02:06:10;;;;;;;2.92;1.23;;;21.80;97.10;;;;;;5027631;28;20407;-71
2023/08/03 02:08:36;;;;;;;4.13;1.40;;;21.70;96.00;;;;;;5029380;28;20080;-65
2023/08/03 02:11:02;;;;;;;3.22;1.20;;;21.70;97.60;;;;;;5026724;28;20076;-70
2023/08/03 02:13:27;;;;;;;3.15;1.13;;;21.70;96.10;;;;;;5026915;28;20057;-73
2023/08/03 02:15:53;;;;;;;5.10;1.20;;;21.90;97.10;;;;;;5019806;28;20088;-65
2023/08/03 02:18:19;;;;;;;4.00;1.50;;;21.80;96.00;;;;;;5022802;28;20128;-71
2023/08/03 02:20:45;;;;;;;2.20;1.00;;;21.60;97.70;;;;;;5024471;28;20052;-72
2023/08/03 02:23:11;;;;;;;3.72;1.23;;;21.80;97.30;;;;;;5032469;28;20610;-69
2023/08/03 02:25:37;;;;;;;4.13;1.17;;;;;;;;;;5029149;28;20120;-72
2023/08/03 02:28:03;;;;;;;2.67;1.10;;;21.70;97.20;;;;;;5018718;28;20046;-69
2023/08/03 02:30:30;;;;;;;3.88;0.95;;;;;;;;;;5024462;28;20056;-71
2023/08/03 02:32:56;;;;;;;3.28;0.90;;;21.80;97.20;;;;;;5019278;28;20050;-68
2023/08/03 02:35:22;;;;;;;4.88;1.50;;;21.70;97.30;;;;;;5013584;28;20049;-74
2023/08/03 02:37:48;;;;;;;1.85;1.00;;;21.70;97.30;;;;;;5045414;28;20052;-72
2023/08/03 02:40:13;;;;;;;3.72;1.15;;;21.80;97.80;;;;;;5030716;28;20515;-72
2023/08/03 02:42:39;;;;;;;2.38;0.70;;;21.70;97.20;;;;;;5030477;28;20399;-74
2023/08/03 02:45:06;;;;;;;2.28;0.88;;;21.70;97.00;;;;;;5019251;28;20559;-73
2023/08/03 02:47:32;;;;;;;2.40;1.10;;;;;;;;;;5012477;28;20377;-75
2023/08/03 02:49:57;;;;;;;3.90;1.00;;;21.80;97.20;;;;;;5021001;28;20033;-70
2023/08/03 02:52:23;;;;;;;3.13;1.10;;;21.70;97.60;;;;;;5032198;28;20115;-68
2023/08/03 02:54:49;;;;;;;4.93;1.40;;;21.70;97.30;;;;;;5030768;28;20092;-70
2023/08/03 02:57:15;;;;;;;2.25;0.90;;;21.50;97.40;;;;;;5029765;28;20049;-72
2023/08/03 02:59:40;;;;;;;2.90;0.82;;;21.60;97.30;;;;;;5015169;28;20388;-71
2023/08/03 03:02:06;;;;;;;2.47;1.00;;;21.80;97.60;;;;;;5024061;28;20426;-68
2023/08/03 03:04:32;;;;;;;1.88;0.88;;;21.60;97.20;;;;;;5016665;28;20380;-71
2023/08/03 03:06:58;;;;;;;2.50;1.00;;;21.60;97.20;;;;;;5032285;28;20504;-68
2023/08/03 03:09:23;;;;;;;3.88;0.93;;;21.60;97.20;;;;;;5032140;28;20153;-72
2023/08/03 03:11:51;;;;;;;2.45;0.88;;;21.60;97.20;;;;;;5032395;28;20049;-68
2023/08/03 03:14:17;;;;;;;2.97;0.90;;;21.60;96.20;;;;;;5035106;28;20410;-69
2023/08/03 03:16:42;;;;;;;2.22;0.77;;;21.90;97.30;;;;;;5014858;28;20049;-68
2023/08/03 03:19:08;;;;;;;2.08;1.08;;;21.70;97.20;;;;;;5027615;28;20136;-71
2023/08/03 03:21:35;;;;;;;3.17;0.80;;;21.80;97.30;;;;;;5030879;28;20096;-67
2023/08/03 03:24:00;;;;;;;2.75;0.80;;;21.80;97.30;;;;;;5032520;28;20053;-69
2023/08/03 03:26:26;;;;;;;3.22;0.85;;;21.70;97.50;;;;;;5033207;28;20053;-65
2023/08/03 03:28:52;;;;;;;2.47;0.80;;;21.70;97.20;;;;;;5032565;28;20065;-71
2023/08/03 03:31:17;;;;;;;2.85;1.02;;;21.90;96.30;;;;;;5031215;28;20465;-70
2023/08/03 03:33:43;;;;;;;2.33;0.80;;;21.60;97.20;;;;;;5032744;28;20275;-69
2023/08/03 03:36:09;;;;;;;0.95;0.52;;;21.90;97.30;;;;;;5024230;28;20180;-71
2023/08/03 03:38:35;;;;;;;2.25;0.90;;;22.00;97.50;;;;;;5029575;28;20135;-72
2023/08/03 03:41:02;;;;;;;1.67;0.73;;;21.70;97.20;;;;;;5029180;28;20041;-69
2023/08/03 03:43:28;;;;;;;2.17;1.02;;;21.80;97.30;;;;;;5066378;28;20057;-70
2023/08/03 03:45:53;;;;;;;3.00;1.05;;;21.80;97.40;;;;;;5033594;28;20652;-62
2023/08/03 03:48:19;;;;;;;3.65;1.13;;;21.60;97.30;;;;;;5028571;28;20099;-60
2023/08/03 03:50:45;;;;;;;1.33;0.80;;;21.70;97.60;;;;;;5030748;28;20438;-61
2023/08/03 03:53:11;;;;;;;2.70;0.88;;;21.70;97.30;;;;;;5022730;28;20104;-61
2023/08/03 03:55:37;;;;;;;1.75;0.98;;;21.60;97.30;;;;;;5022807;28;20396;-61
2023/08/03 03:58:02;;;;;;;3.00;0.88;;;21.60;97.20;;;;;;5014727;28;20056;-61
2023/08/03 04:00:29;;;;;;;2.92;1.10;;;21.60;97.40;;;;;;5032032;28;20128;-61
2023/08/03 04:02:54;;;;;;;1.65;0.70;;;21.50;97.20;;;;;;5031099;28;20094;-60
2023/08/03 04:05:20;;;;;;;1.60;0.88;;;21.70;97.50;;;;;;5034271;28;20041;-61
2023/08/03 04:07:46;;;;;;;2.40;0.93;;;21.80;97.60;;;;;;5033904;28;20174;-62
2023/08/03 04:10:12;;;;;;;1.30;0.80;;;21.80;97.40;;;;;;5021853;28;20088;-61
2023/08/03 04:12:37;;;;;;;2.05;0.80;;;21.80;97.50;;;;;;5030358;28;20509;-61
2023/08/03 04:15:04;;;;;;;1.20;0.80;;;;;;;;;;5019993;28;20058;-61
2023/08/03 04:17:29;;;;;;;2.30;0.88;;;21.70;97.30;;;;;;5041491;28;20046;-61
2023/08/03 04:19:55;;;;;;;2.65;0.80;;;21.60;97.20;;;;;;5025833;28;20407;-61
2023/08/03 04:22:21;;;;;;;3.33;0.90;;;;;;;;;;5029518;28;20069;-68
2023/08/03 04:24:47;;;;;;;2.15;0.90;;;21.60;97.20;;;;;;5020697;28;20041;-61
2023/08/03 04:27:13;;;;;;;1.45;0.60;;;21.70;97.40;;;;;;5021114;28;20766;-61
2023/08/03 04:29:39;;;;;;;1.77;0.60;;;21.80;97.30;;;;;;5031558;28;20045;-61
2023/08/03 04:32:05;;;;;;;1.70;0.80;;;21.60;97.30;;;;;;5052712;28;20041;-75
2023/08/03 04:34:31;;;;;;;1.17;0.75;;;21.70;97.40;;;;;;5030083;28;20049;-72
2023/08/03 04:36:57;;;;;;;3.85;0.75;;;21.70;97.30;;;;;;5033219;28;20061;-74
2023/08/03 04:39:23;;;;;;;1.35;0.75;;;21.60;96.30;;;;;;5034200;28;20060;-72
2023/08/03 04:41:49;;;;;;;1.73;0.75;;;21.80;97.60;;;;;;5034373;28;20099;-75
2023/08/03 04:44:15;;;;;;;1.88;0.75;;;21.90;96.40;;;;;;5023622;28;20531;-73
2023/08/03 04:46:40;;;;;;;2.17;0.90;;;21.60;97.50;;;;;;5025126;28;20476;-76
2023/08/03 04:49:10;;;;;;;2.70;0.65;;;21.70;96.30;;;;;;5034475;28;20037;-75
2023/08/03 04:51:36;;;;;;;1.58;0.75;;;21.90;97.40;;;;;;5033940;28;20100;-75
2023/08/03 04:54:01;;;;;;;1.77;0.90;;;21.70;97.30;;;;;;5033164;28;20042;-74
2023/08/03 04:56:27;;;;;;;2.17;1.00;;;21.80;97.40;;;;;;5030922;28;20045;-61
2023/08/03 04:58:53;;;;;;;3.03;0.70;;;21.90;97.70;;;;;;5023220;28;20499;-60
2023/08/03 05:01:19;;;;;;;2.20;0.90;;;21.80;97.50;;;;;;5030366;28;20104;-63
2023/08/03 05:03:45;;;;;;;2.00;0.70;;;21.60;97.40;;;;;;5031039;28;20045;-69
2023/08/03 05:06:10;;;;;;;0.52;0.50;;;21.80;97.60;;;;;;5028758;28;20049;-62
2023/08/03 05:08:36;;;;;;;0.60;0.45;;;21.80;97.40;;;;;;5031758;28;20077;-61
2023/08/03 05:11:02;;;;;;;1.80;0.80;;;21.80;97.50;;;;;;5015338;28;20041;-63
2023/08/03 05:13:28;;;;;;;1.45;0.82;;;21.70;97.70;;;;;;5047726;28;20531;-64
2023/08/03 05:15:54;;;;;;;1.70;0.70;;;21.80;97.50;;;;;;5027313;28;20083;-65
2023/08/03 05:18:20;;;;;;;1.25;0.57;;;;;;;;;;5028465;28;20045;-68
2023/08/03 05:20:46;;;;;;;2.17;0.88;;;21.80;97.50;;;;;;5018454;28;20074;-62
2023/08/03 05:23:12;;;;;;;1.85;0.80;;;21.70;97.60;;;;;;5033051;28;20096;-64
2023/08/03 05:25:38;;;;;;;2.08;0.80;;;21.70;97.50;;;;;;5045928;28;20073;-64
2023/08/03 05:28:04;;;;;;;1.48;0.75;;;21.70;97.80;;;;;;5027326;28;20045;-62
2023/08/03 05:30:30;;;;;;;2.25;0.80;;;21.70;97.50;;;;;;5025798;28;20112;-63
2023/08/03 05:32:57;;;;;;;1.42;0.73;;;;;;;;;;5032286;28;20056;-63
2023/08/03 05:35:23;;;;;;;1.90;0.90;;;21.60;97.50;;;;;;5030975;28;20041;-62
2023/08/03 05:37:52;;;;;;;1.42;0.80;;;21.70;97.50;;;;;;5023513;28;20041;-62
2023/08/03 05:40:18;;;;;;;2.88;1.00;;;21.60;96.00;;;;;;5022940;28;20042;-63
2023/08/03 05:42:44;;;;;;;3.08;0.80;;;21.80;97.60;;;;;;5031509;28;20048;-63
2023/08/03 05:45:14;;;;;;;3.03;1.00;;;21.60;97.50;;;;;;5029977;28;20057;-73
2023/08/03 05:47:40;;;;;;;2.08;0.90;;;21.70;97.50;;;;;;5042163;28;20496;-70
2023/08/03 05:50:12;;;;;;;1.70;0.90;;;21.70;97.80;;;;;;5016208;28;20040;-69
2023/08/03 05:52:38;;;;;;;1.95;0.88;;;21.60;97.70;;;;;;5028847;28;20107;-71
2023/08/03 05:55:04;;;;;;;1.88;0.85;;;21.90;97.70;;;;;;5029798;28;20443;-66
2023/08/03 05:57:30;;;;;;;1.60;0.80;;;21.70;97.50;;;;;;5027870;28;20033;-71
2023/08/03 05:59:56;;;;;;;1.60;0.82;;;21.80;97.60;;;;;;5021943;28;20418;-72
2023/08/03 06:02:34;;;;;;;2.55;1.10;;;21.60;97.60;;;;;;5029263;28;20071;-71
2023/08/03 06:05:00;;;;;;;2.05;0.85;;;21.80;97.60;;;;;;5030575;28;20050;-70
2023/08/03 06:07:26;;;;;;;1.55;0.70;;;21.80;97.60;;;;;;5030522;28;20128;-67
2023/08/03 06:09:51;;;;;;;3.45;0.85;;;21.80;96.60;;;;;;5027471;28;20060;-68
2023/08/03 06:12:17;;;;;;;1.48;0.80;;;21.70;97.70;;;;;;5018464;28;20046;-70
2023/08/03 06:14:43;;;;;;;3.50;1.02;;;;;;;;;;5045890;28;20049;-73
2023/08/03 06:17:12;;;;;;;1.92;0.70;;;21.60;97.50;;;;;;5027500;28;20054;-73
2023/08/03 06:19:38;;;;;;;2.83;0.77;;;21.80;96.50;;;;;;5018722;28;20060;-71
2023/08/03 06:22:05;;;;;;;2.22;0.93;;;21.70;97.50;;;;;;5031714;28;20045;-72
2023/08/03 06:24:30;;;;;;;1.70;0.90;;;21.80;97.60;;;;;;5029919;28;20049;-72
2023/08/03 06:26:57;;;;;;;4.65;0.98;;;21.60;97.60;;;;;;5036063;28;20058;-71
2023/08/03 06:29:23;;;;;;;2.20;0.88;;;21.70;97.60;;;;;;5031441;28;20403;-68
2023/08/03 06:31:49;;;;;;;3.00;0.80;;;21.70;97.60;;;;;;5027842;28;20049;-73
2023/08/03 06:34:15;;;;;;;2.08;0.80;;;22.00;96.60;;;;;;5035660;28;20047;-70
2023/08/03 06:36:41;;;;;;;2.33;0.77;;;21.80;97.60;;;;;;5023057;28;20041;-72
2023/08/03 06:39:07;;;;;;;2.65;1.10;;;21.90;97.70;;;;;;5038404;28;20041;-61
2023/08/03 06:41:33;;;;;;;2.95;0.80;;;21.80;97.70;;;;;;5012186;28;20046;-62
2023/08/03 06:44:00;;;;;;;1.83;0.80;;;21.90;96.60;;;;;;5024084;28;20041;-61
2023/08/03 06:46:26;;;;;;;1.35;0.90;;;21.70;97.70;;;;;;5030976;28;20402;-62
2023/08/03 06:48:52;;;;;;;3.25;0.90;;;21.70;97.60;;;;;;5032477;28;20049;-61
2023/08/03 06:51:18;;;;;;;1.63;0.88;;;21.70;97.90;;;;;;5032100;28;20116;-62
2023/08/03 06:53:44;;;;;;;2.35;1.05;;;21.90;97.80;;;;;;5028869;28;20049;-62
2023/08/03 06:56:10;;;;;;;2.15;0.90;;;;;;;;;;5039902;28;20060;-68
2023/08/03 06:58:36;;;;;;;2.03;1.00;;;21.80;97.60;;;;;;5027867;28;20045;-66
2023/08/03 07:01:02;;;;;;;2.85;1.17;;;21.90;97.70;;;;;;5015987;28;20042;-67
2023/08/03 07:03:28;;;;;;;2.90;1.02;;;22.00;97.70;;;;;;5014854;28;20117;-61
2023/08/03 07:05:54;;;;;;;2.33;1.10;;;22.00;97.80;;;;;;5027588;28;20120;-61
2023/08/03 07:08:20;;;;;;;2.53;1.00;;;22.10;97.40;;;;;;5025831;28;20061;-62
2023/08/03 07:10:45;;;;;;;1.88;0.85;;;22.30;97.40;;;;;;5027468;28;20068;-63
2023/08/03 07:13:13;;;;;;;2.35;1.20;;;;;;;;;;5027094;28;20045;-65
2023/08/03 07:15:38;;;;;;;3.95;1.20;;;22.30;97.20;;;;;;5018244;28;20117;-62
2023/08/03 07:18:05;;;;;;;3.38;0.98;;;22.40;96.20;;;;;;5025818;28;20474;-61
2023/08/03 07:20:31;;;;;;;3.10;0.80;;;22.30;96.30;;;;;;5027604;28;20125;-61
2023/08/03 07:22:57;;;;;;;2.70;1.05;;;22.50;97.00;;;;;;5020291;28;20523;-67
2023/08/03 07:25:23;;;;;;;2.42;1.02;;;20.50;95.50;;;;;;5053171;28;20037;-62
2023/08/03 07:27:50;;;;;;;2.38;1.02;;;22.60;96.80;;;;;;5025858;28;20121;-62
2023/08/03 07:30:16;;;;;;;3.05;0.90;;;22.60;95.80;;;;;;5025873;28;20452;-74
2023/08/03 07:32:42;;;;;;;2.03;1.05;;;22.70;96.90;;;;;;5030695;28;20125;-72
2023/08/03 07:35:08;;;;;;;1.88;0.90;;;23.00;95.60;;;;;;5013348;28;20045;-75
2023/08/03 07:37:34;;;;;;;3.35;1.10;;;22.90;95.40;;;;;;5011207;28;20053;-74
2023/08/03 07:40:00;;;;;;;7.38;1.58;;;22.90;96.70;;;;;;5011169;28;20049;-61
2023/08/03 07:42:25;;;;;;;3.13;1.27;;;22.70;96.60;;;;;;5029594;28;20041;-62
2023/08/03 07:44:52;;;;;;;2.67;1.08;;;22.80;96.40;;;;;;5028956;28;20045;-63
2023/08/03 07:47:18;;;;;;;2.08;1.00;;;22.70;95.40;;;;;;5027452;28;20448;-68
2023/08/03 07:49:44;;;;;;;1.83;1.23;;;23.00;95.30;;;;;;5025371;28;20092;-71
2023/08/03 07:52:10;;;;;;;2.08;1.15;;;23.00;95.10;;;;;;5026048;28;20415;-69
2023/08/03 07:54:36;;;;;;;3.05;1.02;;;23.30;95.10;;;;;;5033618;28;20084;-67
2023/08/03 07:57:03;;;;;;;4.57;1.33;;;22.80;96.30;;;;;;5025406;28;20041;-61
2023/08/03 07:59:28;;;;;;;3.55;1.40;;;23.20;95.20;;;;;;5027759;28;20057;-62
2023/08/03 08:01:54;;;;;;;2.55;1.00;;;22.80;96.40;;;;;;5026837;28;20043;-62
2023/08/03 08:04:20;;;;;;;2.88;1.20;;;23.20;96.20;;;;;;5033762;28;20098;-71
2023/08/03 08:06:46;;;;;;;3.30;1.17;;;23.10;96.30;;;;;;5033614;28;20476;-73
2023/08/03 08:09:12;;;;;;;3.08;1.27;;;23.10;96.20;;;;;;5033842;28;20049;-69
2023/08/03 08:11:37;;;;;;;3.03;1.25;;;23.30;95.90;;;;;;5029580;28;20033;-61
2023/08/03 08:14:03;;;;;;;4.93;1.20;;;23.30;94.90;;;;;;5034908;28;20053;-64
2023/08/03 08:16:29;;;;;;;4.03;1.20;;;23.40;94.70;;;;;;5033868;28;20041;-70
2023/08/03 08:18:55;;;;;;;3.22;1.13;;;23.40;94.60;;;;;;5034915;28;20049;-69
2023/08/03 08:21:21;;;;;;;4.75;1.40;;;23.60;94.60;;;;;;5031430;28;20057;-64
2023/08/03 08:23:47;;;;;;;5.10;1.25;;;23.60;95.30;;;;;;5032688;28;20049;-62
2023/08/03 08:26:15;;;;;;;5.10;1.40;;;24.00;95.30;;;;;;5029829;28;20048;-68
2023/08/03 08:28:41;;;;;;;4.60;1.50;;;23.90;94.30;;;;;;5030102;28;20115;-63
2023/08/03 08:31:08;;;;;;;5.38;1.67;;;23.80;95.00;;;;;;5027753;28;20046;-62
2023/08/03 08:33:34;;;;;;;5.03;1.75;;;23.90;94.10;;;;;;5033159;28;20163;-70
2023/08/03 08:36:00;;;;;;;4.53;1.70;;;23.90;93.90;;;;;;5031255;28;20499;-64
2023/08/03 08:38:26;;;;;;;8.18;1.92;;;24.20;93.80;;;;;;5030440;28;20384;-62
2023/08/03 08:40:52;;;;;;;4.03;1.85;;;24.10;94.80;;;;;;5030465;28;20068;-62
2023/08/03 08:43:18;;;;;;;5.82;2.13;;;23.90;93.70;;;;;;5030002;28;20048;-62
2023/08/03 08:45:44;;;;;;;6.65;2.22;;;24.10;93.80;;;;;;5030585;28;20502;-66
2023/08/03 08:48:10;;;;;;;5.72;2.50;;;24.00;93.70;;;;;;5030163;28;20080;-65
2023/08/03 08:50:36;;;;;;;6.72;2.15;;;24.00;93.60;;;;;;5063425;28;20115;-68
2023/08/03 08:53:02;;;;;;;7.57;2.58;;;24.30;93.60;;;;;;5028351;28;20518;-64
2023/08/03 08:55:29;;;;;;;5.97;2.00;;;24.10;93.30;;;;;;5027892;28;20103;-64
2023/08/03 08:57:56;;;;;;;8.57;2.72;;;24.10;93.40;;;;;;5012307;28;20084;-62
2023/08/03 09:00:24;;;;;;;9.38;2.35;;;24.30;94.20;;;;;;5029736;28;20045;-62
2023/08/03 09:02:55;;;;;;;6.28;2.35;;;24.70;94.40;;;;;;5020680;28;20536;-64
2023/08/03 09:05:22;;;;;;;6.90;2.60;;;24.20;93.20;;;;;;5031286;28;20483;-64
2023/08/03 09:08:00;;;;;;;8.57;2.72;;;24.50;93.00;;;;;;5032718;28;20079;-64
2023/08/03 09:10:26;;;;;;;5.78;2.55;;;24.60;93.10;;;;;;5032274;28;20072;-63
2023/08/03 09:12:52;;;;;;;8.02;2.58;;;24.40;92.80;;;;;;5031551;28;20446;-65
2023/08/03 09:15:17;;;;;;;8.40;2.70;;;24.50;92.90;;;;;;5026599;28;20112;-64
2023/08/03 09:17:46;;;;;;;7.43;2.55;;;24.30;93.20;;;;;;5007714;28;20395;-63
2023/08/03 09:20:28;;;;;;;8.38;2.70;;;24.00;94.10;;;;;;5029830;28;20506;-63
2023/08/03 09:22:53;;;;;;;7.90;2.70;;;24.20;92.80;;;;;;5030494;28;20415;-65
2023/08/03 09:25:19;;;;;;;7.07;2.47;;;24.30;93.00;;;;;;5013736;28;20045;-64
2023/08/03 09:27:50;;;;;;;6.15;2.63;;;24.30;94.10;;;;;;5028001;28;20084;-63
2023/08/03 09:30:16;;;;;;;7.93;2.70;;;24.60;93.20;;;;;;5026696;28;20128;-64
2023/08/03 09:32:42;;;;;;;7.68;2.92;;;24.30;92.90;;;;;;5029181;28;20113;-64
2023/08/03 09:35:34;;;;;;;6.72;2.60;;;24.30;92.80;;;;;;5030864;28;20044;-64
2023/08/03 09:38:00;;;;;;;6.40;2.10;;;24.50;92.80;;;;;;5022931;28;20441;-63
2023/08/03 09:40:26;;;;;;;6.65;2.47;;;24.50;92.90;;;;;;5023658;28;20073;-64
2023/08/03 09:42:51;;;;;;;8.40;2.78;;;24.60;92.80;;;;;;5027293;28;20050;-66
2023/08/03 09:45:17;;;;;;;7.18;2.38;;;24.30;92.60;;;;;;5028785;28;20038;-63
2023/08/03 09:47:43;;;;;;;6.30;2.47;;;24.40;92.60;;;;;;5026726;28;20061;-75
2023/08/03 09:50:09;;;;;;;6.03;2.00;;;24.50;92.50;;;;;;5060393;28;20092;-70
2023/08/03 09:52:46;;;;;;;5.60;2.20;;;24.60;92.80;;;;;;5029750;28;20049;-68
2023/08/03 09:55:20;;;;;;;6.53;2.08;;;24.10;92.90;;;;;;5021373;28;20041;-69
2023/08/03 09:58:06;;;;;;;6.28;2.53;;;24.40;92.60;;;;;;5028016;28;20080;-75
2023/08/03 10:00:32;;;;;;;6.93;2.15;;;24.30;94.30;;;;;;5031434;28;20049;-65
2023/08/03 10:03:12;;;;;;;5.15;2.05;;;24.30;93.00;;;;;;5031513;28;20120;-62
2023/08/03 10:06:11;;;;;;;5.32;2.20;;;24.20;93.10;;;;;;5030827;28;20455;-64
2023/08/03 10:08:47;;;;;;;5.70;2.08;;;24.20;93.00;;;;;;5020939;28;20132;-63
2023/08/03 10:11:13;;;;;;;7.10;2.00;;;24.10;93.00;;;;;;5027516;28;20057;-64
2023/08/03 10:13:46;;;;;;;5.95;2.00;;;24.30;94.10;;;;;;5011704;28;20050;-63
2023/08/03 10:16:12;;;;;;;;;;;24.40;92.80;;;;;;5012792;28;20108;-72
2023/08/03 10:18:38;;;;;;;7.57;2.20;;;24.40;92.90;;;;;;5027313;28;19931;-73
2023/08/03 10:21:05;;;;;;;4.70;2.22;;;24.10;92.70;;;;;;5046149;28;20049;-68
2023/08/03 10:23:31;;;;;;;5.35;1.80;;;24.30;94.10;;;;;;5023979;28;20064;-63
2023/08/03 10:25:58;;;;;;;7.18;2.13;;;24.50;92.90;;;;;;5025570;28;20057;-76
2023/08/03 10:28:39;;;;;;;4.57;1.60;;;24.40;92.90;;;;;;5012764;28;20057;-68
2023/08/03 10:31:14;;;;;;;6.28;2.10;;;24.10;92.90;;;;;;5030095;28;20493;-67
2023/08/03 10:33:49;;;;;;;4.55;1.70;;;24.30;94.00;;;;;;5011129;28;20049;-72
2023/08/03 10:36:30;;;;;;;5.88;1.73;;;24.10;92.90;;;;;;5058769;28;20550;-75
2023/08/03 10:39:06;;;;;;;6.15;1.90;;;24.40;94.30;;;;;;5021530;28;20076;-78
2023/08/03 10:41:51;;;;;;;4.28;1.80;;;24.40;93.00;;;;;;5014846;28;20472;-73
2023/08/03 10:44:20;;;;;;;4.03;1.70;;;24.20;92.30;;;;;;5047240;28;20049;-69
2023/08/03 10:46:53;;;;;;;4.90;1.77;;;24.20;92.70;;;;;;5028236;28;20060;-72
2023/08/03 10:49:22;;;;;;;3.97;1.77;;;24.40;92.90;;;;;;5030111;28;20053;-76
2023/08/03 10:52:28;;;;;;;5.28;1.98;;;24.30;92.40;;;;;;5029202;28;20069;-79
2023/08/03 10:54:55;;;;;;;5.47;1.73;;;24.10;94.30;;;;;;5019525;28;20095;-74
2023/08/03 10:57:24;;;;;;;3.92;1.55;;;23.90;93.10;;;;;;5024411;28;20061;-68
2023/08/03 10:59:58;;;;;;;4.97;1.80;;;24.10;93.20;;;;;;5022407;28;20045;-69
2023/08/03 11:02:28;;;;;;;5.03;1.77;;;24.00;92.40;;;;;;5031387;28;20049;-63
2023/08/03 11:05:01;;;;;;;3.95;1.60;;;24.20;93.20;;;;;;5027234;28;20037;-78
2023/08/03 11:07:36;;;;;;;5.53;1.95;;;24.10;92.60;;;;;;5025449;28;20041;-78
2023/08/03 11:10:04;;;;;;;4.35;1.80;;;23.90;94.40;;;;;;5027107;28;20553;-73
2023/08/03 11:12:30;;;;;;;5.63;1.70;;;23.80;94.60;;;;;;5031885;28;20045;-76
2023/08/03 11:14:56;;;;;;;3.85;1.60;;;24.00;93.30;;;;;;5025158;28;20049;-67
2023/08/03 11:17:26;;;;;;;3.42;1.80;;;24.10;93.20;;;;;;5030328;28;20046;-79
2023/08/03 11:19:53;;;;;;;4.10;1.60;;;23.80;93.30;;;;;;5030376;28;20052;-64
2023/08/03 11:22:21;;;;;;;4.53;1.88;;;24.00;93.60;;;;;;5029019;28;20057;-66
2023/08/03 11:24:51;;;;;;;3.08;1.45;;;23.90;94.60;;;;;;5031608;28;20063;-71
2023/08/03 11:27:17;;;;;;;5.22;1.90;;;24.00;92.80;;;;;;5034034;28;20120;-66
2023/08/03 11:29:43;;;;;;;4.90;1.70;;;23.90;94.60;;;;;;5032335;28;20064;-62
2023/08/03 11:32:11;;;;;;;5.35;1.80;;;24.00;93.40;;;;;;5024695;28;20052;-66
2023/08/03 11:34:40;;;;;;;4.47;1.70;;;23.90;93.30;;;;;;5029296;28;20111;-62
2023/08/03 11:37:07;;;;;;;4.47;1.85;;;24.30;93.40;;;;;;5015159;28;20045;-62
2023/08/03 11:39:33;;;;;;;3.78;1.60;;;24.40;94.50;;;;;;5031369;28;20452;-65
2023/08/03 11:41:58;;;;;;;4.45;1.85;;;24.10;93.20;;;;;;5029188;28;20124;-63
2023/08/03 11:44:24;;;;;;;4.07;1.70;;;24.00;93.10;;;;;;5029165;28;20030;-62
2023/08/03 11:47:06;;;;;;;4.13;1.77;;;24.10;93.20;;;;;;5045409;28;20060;-78
2023/08/03 11:49:32;;;;;;;4.30;1.80;;;24.00;93.30;;;;;;5006877;28;20060;-68
2023/08/03 11:52:00;;;;;;;7.10;2.10;;;24.20;93.30;;;;;;5029509;28;20148;-75
2023/08/03 11:54:29;;;;;;;8.68;1.95;;;23.90;93.20;;;;;;5047841;28;20052;-63
2023/08/03 11:58:07;;;;;;;7.55;2.03;;;24.10;93.50;;;;;;5020914;28;20430;-65
2023/08/03 11:59:43;;;;;;;9.70;2.33;;;23.90;93.30;;;;;;5028602;28;20053;-64
2023/08/03 12:02:09;;;;;;;10.23;2.35;;;23.80;93.20;;;;;;5033428;28;20042;-74
2023/08/03 12:04:35;;;;;;;9.65;2.25;;;24.30;93.30;;;;;;5066973;28;20501;-71
2023/08/03 12:07:01;;;;;;;11.38;2.67;;;24.30;93.20;;;;;;5030548;28;20041;-73
2023/08/03 12:09:27;;;;;;;7.95;1.95;;;24.20;93.20;;;;;;5048953;28;20053;-77
2023/08/03 12:12:01;;;;;;;6.68;1.70;;;24.40;93.30;;;;;;5033264;28;20056;-71
2023/08/03 12:14:27;;;;;;;7.40;2.10;;;24.00;93.20;;;;;;5032994;28;20049;-76
2023/08/03 12:16:53;;;;;;;14.65;2.10;;;24.20;93.10;;;;;;5030867;28;20049;-71
2023/08/03 12:19:19;;;;;;;7.50;1.98;;;24.20;93.00;;;;;;5015406;28;20045;-78
2023/08/03 12:21:45;;;;;;;6.60;2.00;;;24.40;93.10;;;;;;5016685;28;20124;-64
2023/08/03 12:24:11;;;;;;;5.70;1.98;;;24.30;93.10;;;;;;5028857;28;20061;-74
2023/08/03 12:26:37;;;;;;;7.95;1.80;;;24.20;92.90;;;;;;5032877;28;20038;-77
2023/08/03 12:29:04;;;;;;;7.07;2.25;;;24.30;93.00;;;;;;5033319;28;20049;-66
2023/08/03 12:31:30;;;;;;;4.90;2.00;;;24.20;94.20;;;;;;5031710;28;20049;-77
2023/08/03 12:33:56;;;;;;;7.90;2.10;;;24.40;92.90;;;;;;5031779;28;20049;-76
2023/08/03 12:36:22;;;;;;;5.50;1.90;;;24.40;92.90;;;;;;5033348;28;20399;-69
2023/08/03 12:38:48;;;;;;;5.65;2.20;;;24.40;92.90;;;;;;5033938;28;20045;-65
2023/08/03 12:41:14;;;;;;;4.60;1.90;;;24.30;92.90;;;;;;5029776;28;20156;-66
2023/08/03 12:43:40;;;;;;;5.70;1.75;;;24.10;92.80;;;;;;5031933;28;20050;-64
2023/08/03 12:46:07;;;;;;;5.10;1.83;;;24.40;92.80;;;;;;5034492;28;20041;-62
2023/08/03 12:48:32;;;;;;;4.95;1.88;;;24.50;94.40;;;;;;5032618;28;20148;-63
2023/08/03 12:50:58;;;;;;;4.28;1.83;;;24.40;92.90;;;;;;5032867;28;20045;-65